createdAt,value
2023-03-23T16:00:00.611Z,69.04
2023-03-23T16:02:17.624Z,68.86
2023-03-23T16:04:34.554Z,69.40
2023-03-23T16:06:51.489Z,68.22
2023-03-23T16:09:09.499Z,69.77
2023-03-23T16:11:26.648Z,69.56
2023-03-23T16:13:43.879Z,67.96
2023-03-23T16:16:00.841Z,67.98
2023-03-23T16:18:17.841Z,67.67
2023-03-23T16:20:34.772Z,67.65
2023-03-23T16:22:52.062Z,66.96
2023-03-23T16:25:09.407Z,66.87
2023-03-23T16:27:26.749Z,68.44
2023-03-23T16:30:02.211Z,68.51
2023-03-23T16:32:21.004Z,67.26
2023-03-23T16:34:38.199Z,68.51
2023-03-23T16:36:55.241Z,67.42
2023-03-23T16:39:12.589Z,68.77
2023-03-23T16:41:29.698Z,68.56
2023-03-23T16:43:47.017Z,67.53
2023-03-23T16:46:03.999Z,69.66
2023-03-23T16:48:21.293Z,70.69
2023-03-23T16:50:38.195Z,71.44
2023-03-23T16:52:55.115Z,71.32
2023-03-23T16:55:12.201Z,72.30
2023-03-23T16:57:29.533Z,72.94
2023-03-23T16:59:46.550Z,73.20
2023-03-23T17:02:03.748Z,71.92
2023-03-23T17:04:20.852Z,72.00
2023-03-23T17:06:38.812Z,73.46
2023-03-23T17:08:55.759Z,72.56
2023-03-23T17:11:12.914Z,72.81
2023-03-23T17:13:30.162Z,74.59
2023-03-23T17:15:47.641Z,73.23
2023-03-23T17:18:04.776Z,72.92
2023-03-23T17:20:22.072Z,75.06
2023-03-23T17:22:42.260Z,74.58
2023-03-23T17:24:59.510Z,74.45
2023-03-23T17:27:16.466Z,73.97
2023-03-23T17:29:34.632Z,75.25
2023-03-23T17:31:51.949Z,75.93
2023-03-23T17:34:11.766Z,75.19
2023-03-23T17:36:28.860Z,74.73
2023-03-23T17:38:45.773Z,76.59
2023-03-23T17:41:02.708Z,75.97
2023-03-23T17:43:20.001Z,75.03
2023-03-23T17:45:36.885Z,76.54
2023-03-23T17:47:53.960Z,76.29
2023-03-23T17:50:12.744Z,75.76
2023-03-23T17:52:29.936Z,77.69
2023-03-23T17:54:46.915Z,76.82
2023-03-23T17:57:05.031Z,76.78
2023-03-23T17:59:21.978Z,77.24
2023-03-23T18:01:39.015Z,77.40
2023-03-23T18:03:56.307Z,77.68
2023-03-23T18:06:13.385Z,78.52
2023-03-23T18:08:30.346Z,78.37
2023-03-23T18:10:47.306Z,80.14
2023-03-23T18:13:04.535Z,80.23
2023-03-23T18:15:21.538Z,79.58
2023-03-23T18:17:45.350Z,80.34
2023-03-23T18:20:02.478Z,78.92
2023-03-23T18:22:19.492Z,80.64
2023-03-23T18:24:37.259Z,80.23
2023-03-23T18:26:54.352Z,80.87
2023-03-23T18:29:11.457Z,81.08
2023-03-23T18:31:28.796Z,79.72
2023-03-23T18:33:45.785Z,80.61
2023-03-23T18:36:04.138Z,80.51
2023-03-23T18:38:21.237Z,80.45
2023-03-23T18:40:38.199Z,80.68
2023-03-23T18:42:55.549Z,80.71
2023-03-23T18:45:12.492Z,80.79
2023-03-23T18:47:29.461Z,81.57
2023-03-23T18:49:47.497Z,81.74
2023-03-23T18:52:04.801Z,82.77
2023-03-23T18:54:22.135Z,82.39
2023-03-23T18:56:39.277Z,82.73
2023-03-23T18:58:56.238Z,83.53
2023-03-23T19:01:13.397Z,83.82
2023-03-23T19:03:30.444Z,83.21
2023-03-23T19:05:47.366Z,83.97
2023-03-23T19:08:04.425Z,83.27
2023-03-23T19:10:21.270Z,83.79
2023-03-23T19:12:38.263Z,84.90
2023-03-23T19:14:55.545Z,83.71
2023-03-23T19:17:12.619Z,84.49
2023-03-23T19:19:30.008Z,84.36
2023-03-23T19:21:47.897Z,84.22
2023-03-23T19:24:04.898Z,84.88
2023-03-23T19:26:22.254Z,85.13
2023-03-23T19:30:59.209Z,85.99
2023-03-23T19:33:16.184Z,85.43
2023-03-23T19:35:33.496Z,85.98
2023-03-23T19:37:50.440Z,86.26
2023-03-23T19:40:20.941Z,85.64
2023-03-23T19:42:44.411Z,86.97
2023-03-23T19:45:01.390Z,86.15
2023-03-23T19:47:18.462Z,86.92
2023-03-23T19:49:35.475Z,85.42
2023-03-23T19:52:09.005Z,85.55
2023-03-23T19:54:27.323Z,85.28
2023-03-23T19:56:44.382Z,85.79
2023-03-23T19:59:01.590Z,85.91
2023-03-23T20:01:18.740Z,86.09
2023-03-23T20:03:35.812Z,86.29
2023-03-23T20:05:52.787Z,86.43
2023-03-23T20:08:09.750Z,86.12
2023-03-23T20:10:26.760Z,85.50
2023-03-23T20:12:44.024Z,87.06
2023-03-23T20:15:00.990Z,86.26
2023-03-23T20:17:18.003Z,86.69
2023-03-23T20:19:36.543Z,86.55
2023-03-23T20:21:54.009Z,86.39
2023-03-23T20:24:11.237Z,86.59
2023-03-23T20:26:28.279Z,86.67
2023-03-23T20:28:45.775Z,86.96
2023-03-23T20:31:21.009Z,87.59
2023-03-23T20:33:40.714Z,87.71
2023-03-23T20:35:58.018Z,87.21
2023-03-23T20:38:14.973Z,88.14
2023-03-23T20:40:31.849Z,88.23
2023-03-23T20:42:48.931Z,87.40
2023-03-23T20:45:05.869Z,87.58
2023-03-23T20:47:23.002Z,87.70
2023-03-23T20:49:40.344Z,88.40
2023-03-23T20:51:57.661Z,87.88
2023-03-23T20:54:14.553Z,87.85
2023-03-23T20:56:31.625Z,87.54
2023-03-23T20:58:48.540Z,87.76
2023-03-23T21:01:05.540Z,88.31
2023-03-23T21:03:22.425Z,87.43
2023-03-23T21:05:39.527Z,87.74
2023-03-23T21:07:56.864Z,87.42
2023-03-23T21:10:13.897Z,87.24
2023-03-23T21:12:31.032Z,88.82
2023-03-23T21:14:47.975Z,88.54
2023-03-23T21:17:04.920Z,88.69
2023-03-23T21:19:22.276Z,87.89
2023-03-23T21:21:39.843Z,88.54
2023-03-23T21:24:13.135Z,88.37
2023-03-23T21:26:30.429Z,88.25
2023-03-23T21:28:47.644Z,88.00
2023-03-23T21:31:04.871Z,88.67
2023-03-23T21:33:21.804Z,88.96
2023-03-23T21:35:39.140Z,87.70
2023-03-23T21:37:56.522Z,88.19
2023-03-23T21:40:14.460Z,88.11
2023-03-23T21:42:31.822Z,87.40
2023-03-23T21:44:49.129Z,87.73
2023-03-23T21:47:06.064Z,88.46
2023-03-23T21:49:23.003Z,88.64
2023-03-23T21:51:40.430Z,88.91
2023-03-23T21:53:57.756Z,88.20
2023-03-23T21:56:15.800Z,88.34
2023-03-23T21:58:33.007Z,88.20
2023-03-23T22:00:50.305Z,88.62
2023-03-23T22:03:07.514Z,89.44
2023-03-23T22:05:24.482Z,89.13
2023-03-23T22:07:41.377Z,89.79
2023-03-23T22:09:58.732Z,88.91
2023-03-23T22:12:15.810Z,89.97
2023-03-23T22:14:33.002Z,89.57
2023-03-23T22:16:50.057Z,89.44
2023-03-23T22:19:07.304Z,89.83
2023-03-23T22:21:25.342Z,90.75
2023-03-23T22:23:42.400Z,89.80
2023-03-23T22:25:59.406Z,89.96
2023-03-23T22:28:16.374Z,91.54
2023-03-23T22:30:33.309Z,91.29
2023-03-23T22:32:50.437Z,91.10
2023-03-23T22:35:07.514Z,92.11
2023-03-23T22:37:24.714Z,92.89
2023-03-23T22:39:41.974Z,93.14
2023-03-23T22:41:59.193Z,93.09
2023-03-23T22:44:16.150Z,93.52
2023-03-23T22:46:33.506Z,93.92
2023-03-23T22:48:50.838Z,94.25
2023-03-23T22:51:07.736Z,94.81
2023-03-23T22:53:24.720Z,94.75
2023-03-23T22:55:41.918Z,94.82
2023-03-23T22:57:58.993Z,96.33
2023-03-23T23:00:16.075Z,95.67
2023-03-23T23:02:33.064Z,95.85
2023-03-23T23:04:50.042Z,95.76
2023-03-23T23:07:12.800Z,95.91
2023-03-23T23:09:30.604Z,95.82
2023-03-23T23:11:47.550Z,95.54
2023-03-23T23:14:04.733Z,95.05
2023-03-23T23:16:21.752Z,95.55
2023-03-23T23:18:39.059Z,95.56
2023-03-23T23:20:55.983Z,95.13
2023-03-23T23:23:12.946Z,95.38
2023-03-23T23:25:30.242Z,95.38
2023-03-23T23:27:47.358Z,96.35
2023-03-23T23:30:04.693Z,96.39
2023-03-23T23:32:21.793Z,95.42
2023-03-23T23:34:39.060Z,95.88
2023-03-23T23:36:56.472Z,95.37
2023-03-23T23:39:13.722Z,96.48
2023-03-23T23:41:30.655Z,94.91
2023-03-23T23:43:47.621Z,95.70
2023-03-23T23:46:04.908Z,95.92
2023-03-23T23:48:22.795Z,95.68
2023-03-23T23:50:40.092Z,96.14
2023-03-23T23:52:57.066Z,95.19
2023-03-23T23:55:15.268Z,94.48
2023-03-23T23:57:32.343Z,95.24
2023-03-23T23:59:49.679Z,94.83
